Time;durP1;ratioP1;P1;durP2;ratioP2;P2;SDS_P1;SDS_P2;PMS_P1;PMS_P2;Temp;Humidity;BMP_temperature;BMP_pressure;BME280_temperature;BME280_humidity;BME280_pressure;Samples;Min_cycle;Max_cycle;Signal;HPM_P1;HPM_P2
2021/07/03 00:02:14;;;;;;;;;;;22.80;99.90;;;;;;5042462;28;20459;-58
2021/07/03 00:04:42;;;;;;;;;;;22.70;99.90;;;;;;5049208;28;20399;-58
2021/07/03 00:07:09;;;;;;;;;;;22.60;99.90;;;;;;5041171;28;20365;-58
2021/07/03 00:09:36;;;;;;;;;;;22.60;99.90;;;;;;5027416;28;19986;-58
2021/07/03 00:12:05;;;;;;;;;;;22.50;99.90;;;;;;5026756;28;20010;-58
2021/07/03 00:14:31;;;;;;;;;;;22.50;99.90;;;;;;5027463;28;19985;-58
2021/07/03 00:16:57;;;;;;;;;;;22.40;99.90;;;;;;5027407;28;20066;-58
2021/07/03 00:19:23;;;;;;;;;;;22.40;99.90;;;;;;5027419;28;20395;-58
2021/07/03 00:21:49;;;;;;;;;;;22.40;99.90;;;;;;5027499;28;19997;-58
2021/07/03 00:24:15;;;;;;;;;;;22.40;99.90;;;;;;5026969;28;19982;-58
2021/07/03 00:26:41;;;;;;;;;;;22.40;99.90;;;;;;5027219;28;19997;-58
2021/07/03 00:29:06;;;;;;;;;;;22.40;99.90;;;;;;5026966;28;20380;-58
2021/07/03 00:31:32;;;;;;;;;;;22.60;99.90;;;;;;5027069;28;20010;-58
2021/07/03 00:33:57;;;;;;;;;;;22.50;99.90;;;;;;5026599;28;20495;-57
2021/07/03 00:36:23;;;;;;;;;;;22.60;99.90;;;;;;5027091;28;19982;-58
2021/07/03 00:38:48;;;;;;;;;;;22.60;99.90;;;;;;5027675;28;19982;-57
2021/07/03 00:41:14;;;;;;;;;;;22.80;99.90;;;;;;5028020;28;19988;-58
2021/07/03 00:43:39;;;;;;;;;;;22.90;99.90;;;;;;5047402;28;19982;-58
2021/07/03 00:46:05;;;;;;;;;;;22.90;99.90;;;;;;5046299;28;20032;-58
2021/07/03 00:48:30;;;;;;;;;;;22.80;99.90;;;;;;5046797;28;19990;-58
2021/07/03 00:50:57;;;;;;;;;;;22.80;99.90;;;;;;5046082;28;20112;-58
2021/07/03 00:53:23;;;;;;;;;;;22.80;99.90;;;;;;5026951;28;20080;-58
2021/07/03 00:55:51;;;;;;;;;;;22.80;99.90;;;;;;5027185;28;20072;-58
2021/07/03 00:58:17;;;;;;;;;;;22.70;99.90;;;;;;5026739;28;19998;-58
2021/07/03 01:00:42;;;;;;;;;;;22.70;99.90;;;;;;5026692;28;20427;-58
2021/07/03 01:03:08;;;;;;;;;;;22.70;99.90;;;;;;5039744;28;20033;-58
2021/07/03 01:05:34;;;;;;;;;;;22.80;99.90;;;;;;5046377;28;20032;-58
2021/07/03 01:08:00;;;;;;;;;;;22.80;99.90;;;;;;5045173;28;19989;-58
2021/07/03 01:10:27;;;;;;;;;;;22.70;99.90;;;;;;5046130;28;20009;-58
2021/07/03 01:12:53;;;;;;;;;;;22.70;99.90;;;;;;5032236;28;20001;-58
2021/07/03 01:15:19;;;;;;;;;;;22.70;99.90;;;;;;5026922;28;20364;-58
2021/07/03 01:17:44;;;;;;;;;;;22.70;99.90;;;;;;5026478;28;20077;-58
2021/07/03 01:20:11;;;;;;;;;;;22.70;99.90;;;;;;5026097;28;19997;-58
2021/07/03 01:22:38;;;;;;;;;;;22.70;99.90;;;;;;5032679;28;20044;-57
2021/07/03 01:25:04;;;;;;;;;;;22.60;99.90;;;;;;5025600;28;19997;-58
2021/07/03 01:27:30;;;;;;;;;;;22.60;99.90;;;;;;5026171;28;19983;-58
2021/07/03 01:29:55;;;;;;;;;;;22.60;99.90;;;;;;5025980;28;20009;-57
2021/07/03 01:32:22;;;;;;;;;;;22.50;99.90;;;;;;5026611;28;20111;-58
2021/07/03 01:34:48;;;;;;;;;;;22.50;99.90;;;;;;5026593;28;20350;-57
2021/07/03 01:37:13;;;;;;;;;;;22.60;99.90;;;;;;5025602;28;20104;-57
2021/07/03 01:39:40;;;;;;;;;;;22.50;99.90;;;;;;5024777;28;19992;-58
2021/07/03 01:42:07;;;;;;;;;;;22.60;99.90;;;;;;5025681;28;20025;-58
2021/07/03 01:44:33;;;;;;;;;;;22.40;99.90;;;;;;5025932;28;20546;-58
2021/07/03 01:46:59;;;;;;;;;;;22.40;99.90;;;;;;5025833;28;19986;-58
2021/07/03 01:49:28;;;;;;;;;;;22.40;99.90;;;;;;5025271;28;20460;-58
2021/07/03 01:51:55;;;;;;;;;;;22.40;99.90;;;;;;5025383;28;20049;-58
2021/07/03 01:54:21;;;;;;;;;;;22.30;99.90;;;;;;5026193;28;19986;-57
2021/07/03 01:56:57;;;;;;;;;;;22.40;99.90;;;;;;5026453;28;20479;-58
2021/07/03 01:59:23;;;;;;;;;;;22.40;99.90;;;;;;5025461;28;19990;-58
2021/07/03 02:01:49;;;;;;;;;;;22.40;99.90;;;;;;5026790;28;20017;-58
2021/07/03 02:04:14;;;;;;;;;;;22.60;99.90;;;;;;5025371;28;19990;-58
2021/07/03 02:06:40;;;;;;;;;;;22.50;99.90;;;;;;5025666;28;19988;-58
2021/07/03 02:09:06;;;;;;;;;;;22.50;99.90;;;;;;5025400;28;19992;-58
2021/07/03 02:11:32;;;;;;;;;;;22.40;99.90;;;;;;5025381;28;20553;-58
2021/07/03 02:13:57;;;;;;;;;;;22.40;99.90;;;;;;5025172;28;19994;-58
2021/07/03 02:16:23;;;;;;;;;;;22.50;99.90;;;;;;5025510;28;20032;-58
2021/07/03 02:18:49;;;;;;;;;;;22.50;99.90;;;;;;5043920;28;20033;-58
2021/07/03 02:21:15;;;;;;;;;;;22.40;99.90;;;;;;5045007;28;20463;-58
2021/07/03 02:23:41;;;;;;;;;;;22.40;99.90;;;;;;5043236;28;20025;-58
2021/07/03 02:26:06;;;;;;;;;;;22.10;99.90;;;;;;5029650;28;20428;-58
2021/07/03 02:28:32;;;;;;;;;;;22.20;99.90;;;;;;5031981;28;20080;-57
2021/07/03 02:30:57;;;;;;;;;;;22.30;99.90;;;;;;5049952;28;20001;-58
2021/07/03 02:33:23;;;;;;;;;;;22.30;99.90;;;;;;5044034;28;20513;-58
2021/07/03 02:35:48;;;;;;;;;;;22.30;99.90;;;;;;5028138;28;20077;-58
2021/07/03 02:38:14;;;;;;;;;;;22.30;99.90;;;;;;5046148;28;20100;-57
2021/07/03 02:40:40;;;;;;;;;;;22.30;99.90;;;;;;5048736;28;20440;-58
2021/07/03 02:43:05;;;;;;;;;;;22.30;99.90;;;;;;5048772;28;19986;-58
2021/07/03 02:45:31;;;;;;;;;;;22.40;99.90;;;;;;5029010;28;20013;-58
2021/07/03 02:47:56;;;;;;;;;;;22.20;99.90;;;;;;5029558;28;19993;-58
2021/07/03 02:50:23;;;;;;;;;;;22.30;99.90;;;;;;5028553;28;20116;-58
2021/07/03 02:52:49;;;;;;;;;;;22.40;99.90;;;;;;5029067;28;20440;-58
2021/07/03 02:55:15;;;;;;;;;;;22.30;99.90;;;;;;5028783;28;20021;-57
2021/07/03 02:57:41;;;;;;;;;;;22.20;99.90;;;;;;5030197;28;20002;-57
2021/07/03 03:00:11;;;;;;;;;;;22.20;99.90;;;;;;5030102;28;19992;-58
2021/07/03 03:02:37;;;;;;;;;;;22.20;99.90;;;;;;5030278;28;19986;-58
2021/07/03 03:05:06;;;;;;;;;;;22.10;99.90;;;;;;5029374;28;19997;-58
2021/07/03 03:07:32;;;;;;;;;;;22.00;99.90;;;;;;5044630;28;19993;-57
2021/07/03 03:09:58;;;;;;;;;;;21.90;99.90;;;;;;5049807;28;19982;-58
2021/07/03 03:12:23;;;;;;;;;;;22.00;99.90;;;;;;5035814;28;20010;-58
2021/07/03 03:14:49;;;;;;;;;;;22.00;99.90;;;;;;5029903;28;19982;-57
2021/07/03 03:17:15;;;;;;;;;;;22.00;99.90;;;;;;5041660;28;20009;-58
2021/07/03 03:19:40;;;;;;;;;;;22.00;99.90;;;;;;5048657;28;19997;-58
2021/07/03 03:22:06;;;;;;;;;;;21.90;99.90;;;;;;5049476;28;20083;-58
2021/07/03 03:24:31;;;;;;;;;;;22.00;99.90;;;;;;5049763;28;20139;-57
2021/07/03 03:26:57;;;;;;;;;;;22.00;99.90;;;;;;5039132;28;20037;-58
2021/07/03 03:29:23;;;;;;;;;;;21.90;99.90;;;;;;5030061;28;20116;-58
2021/07/03 03:31:48;;;;;;;;;;;21.90;99.90;;;;;;5029777;28;20001;-57
2021/07/03 03:34:14;;;;;;;;;;;22.00;99.90;;;;;;5028200;28;20036;-58
2021/07/03 03:36:39;;;;;;;;;;;22.00;99.90;;;;;;5029086;28;19986;-58
2021/07/03 03:39:06;;;;;;;;;;;22.00;99.90;;;;;;5029251;28;20111;-57
2021/07/03 03:41:31;;;;;;;;;;;22.00;99.90;;;;;;5029524;28;19997;-57
2021/07/03 03:43:57;;;;;;;;;;;21.90;99.90;;;;;;5029756;28;19982;-58
2021/07/03 03:46:24;;;;;;;;;;;21.80;99.90;;;;;;5028874;28;20084;-58
2021/07/03 03:48:50;;;;;;;;;;;21.70;99.90;;;;;;5028979;28;20078;-58
2021/07/03 03:51:15;;;;;;;;;;;21.70;99.90;;;;;;5028467;28;20109;-58
2021/07/03 03:53:41;;;;;;;;;;;21.70;99.90;;;;;;5029448;28;20017;-58
2021/07/03 03:56:07;;;;;;;;;;;21.80;99.90;;;;;;5028560;28;20095;-58
2021/07/03 03:58:32;;;;;;;;;;;21.80;99.90;;;;;;5029321;28;19990;-58
2021/07/03 04:00:58;;;;;;;;;;;21.90;99.90;;;;;;5029055;28;20036;-57
2021/07/03 04:03:24;;;;;;;;;;;21.80;99.90;;;;;;5029542;28;20031;-58
2021/07/03 04:05:50;;;;;;;;;;;21.90;99.90;;;;;;5027360;28;20025;-58
2021/07/03 04:08:16;;;;;;;;;;;21.90;99.90;;;;;;5048233;28;20057;-58
2021/07/03 04:10:41;;;;;;;;;;;21.80;99.90;;;;;;5048897;28;20021;-58
2021/07/03 04:13:07;;;;;;;;;;;21.90;99.90;;;;;;5038282;28;19997;-57
2021/07/03 04:15:32;;;;;;;;;;;21.90;99.90;;;;;;5028796;28;19986;-58
2021/07/03 04:17:58;;;;;;;;;;;21.90;99.90;;;;;;5028567;28;19986;-58
2021/07/03 04:20:23;;;;;;;;;;;21.90;99.90;;;;;;5029251;28;19982;-57
2021/07/03 04:22:49;;;;;;;;;;;21.90;99.90;;;;;;5028314;28;20356;-58
2021/07/03 04:25:15;;;;;;;;;;;21.90;99.90;;;;;;5028476;28;20021;-57
2021/07/03 04:27:41;;;;;;;;;;;21.90;99.90;;;;;;5028414;28;20395;-58
2021/07/03 04:30:08;;;;;;;;;;;21.80;99.90;;;;;;5028467;28;19986;-58
2021/07/03 04:32:35;;;;;;;;;;;21.90;99.90;;;;;;5042288;28;20001;-57
2021/07/03 04:35:01;;;;;;;;;;;21.90;99.90;;;;;;5048087;28;19982;-58
2021/07/03 04:37:27;;;;;;;;;;;21.80;99.90;;;;;;5063387;28;20448;-58
2021/07/03 04:39:53;;;;;;;;;;;21.80;99.90;;;;;;5048091;28;19986;-57
2021/07/03 04:42:20;;;;;;;;;;;21.80;99.90;;;;;;5046916;28;19986;-57
2021/07/03 04:44:45;;;;;;;;;;;21.90;99.90;;;;;;5037576;28;19997;-58
2021/07/03 04:47:11;;;;;;;;;;;21.80;99.90;;;;;;5033206;28;19994;-58
2021/07/03 04:49:36;;;;;;;;;;;21.80;99.90;;;;;;5027061;28;20020;-58
2021/07/03 04:52:03;;;;;;;;;;;21.80;99.90;;;;;;5026342;28;20012;-58
2021/07/03 04:54:30;;;;;;;;;;;21.80;99.90;;;;;;5026611;28;20463;-58
2021/07/03 04:57:07;;;;;;;;;;;21.80;99.90;;;;;;5026294;28;19990;-58
2021/07/03 04:59:34;;;;;;;;;;;21.70;99.90;;;;;;5026317;28;20024;-58
2021/07/03 05:02:00;;;;;;;;;;;21.70;99.90;;;;;;5025628;28;19993;-58
2021/07/03 05:04:26;;;;;;;;;;;21.70;99.90;;;;;;5025907;28;20341;-58
2021/07/03 05:06:51;;;;;;;;;;;21.70;99.90;;;;;;5026169;28;19986;-58
2021/07/03 05:09:18;;;;;;;;;;;21.80;99.90;;;;;;5026362;28;19990;-58
2021/07/03 05:11:43;;;;;;;;;;;21.70;99.90;;;;;;5026048;28;20435;-58
2021/07/03 05:14:09;;;;;;;;;;;21.60;99.90;;;;;;5026452;28;19986;-58
2021/07/03 05:16:35;;;;;;;;;;;21.50;99.90;;;;;;5025843;28;20081;-58
2021/07/03 05:19:00;;;;;;;;;;;21.40;99.90;;;;;;5035510;28;20092;-58
2021/07/03 05:21:27;;;;;;;;;;;21.20;99.90;;;;;;5045984;28;20476;-58
2021/07/03 05:23:53;;;;;;;;;;;21.20;99.90;;;;;;5032802;28;20000;-57
2021/07/03 05:26:19;;;;;;;;;;;21.10;99.90;;;;;;5025573;28;20084;-58
2021/07/03 05:28:46;;;;;;;;;;;21.20;99.90;;;;;;5026624;28;19982;-58
2021/07/03 05:31:12;;;;;;;;;;;21.20;99.90;;;;;;5025888;28;20017;-58
2021/07/03 05:33:38;;;;;;;;;;;21.20;99.90;;;;;;5026515;28;19983;-58
2021/07/03 05:36:03;;;;;;;;;;;21.10;99.90;;;;;;5025400;28;20490;-58
2021/07/03 05:38:29;;;;;;;;;;;21.20;99.90;;;;;;5026032;28;19992;-58
2021/07/03 05:40:59;;;;;;;;;;;21.30;99.90;;;;;;5025408;28;20453;-58
2021/07/03 05:43:25;;;;;;;;;;;21.30;99.90;;;;;;5024849;28;20006;-58
2021/07/03 05:45:51;;;;;;;;;;;21.40;99.90;;;;;;5038568;28;20404;-58
2021/07/03 05:48:16;;;;;;;;;;;21.50;99.90;;;;;;5025683;28;19996;-58
2021/07/03 05:50:42;;;;;;;;;;;21.50;99.90;;;;;;5025773;28;20063;-58
2021/07/03 05:53:07;;;;;;;;;;;21.60;99.90;;;;;;5026107;28;20077;-58
2021/07/03 05:55:33;;;;;;;;;;;21.60;99.90;;;;;;5025526;28;20080;-58
2021/07/03 05:57:59;;;;;;;;;;;21.60;99.90;;;;;;5025377;28;20084;-58
2021/07/03 06:00:24;;;;;;;;;;;21.50;99.90;;;;;;5044417;28;19993;-58
2021/07/03 06:02:50;;;;;;;;;;;21.40;99.90;;;;;;5026903;28;19987;-58
2021/07/03 06:05:15;;;;;;;;;;;21.40;99.90;;;;;;5031022;28;20017;-58
2021/07/03 06:07:42;;;;;;;;;;;21.50;99.90;;;;;;5047009;28;20085;-58
2021/07/03 06:10:08;;;;;;;;;;;21.50;99.90;;;;;;5047169;28;19982;-59
2021/07/03 06:12:34;;;;;;;;;;;21.60;99.90;;;;;;5046463;28;20005;-60
2021/07/03 06:14:59;;;;;;;;;;;21.80;99.90;;;;;;5042603;28;20001;-60
2021/07/03 06:17:26;;;;;;;;;;;21.90;99.90;;;;;;5028217;28;19990;-59
2021/07/03 06:19:53;;;;;;;;;;;22.00;99.90;;;;;;5041232;28;19989;-59
2021/07/03 06:22:19;;;;;;;;;;;21.90;99.90;;;;;;5046537;28;19993;-59
2021/07/03 06:24:46;;;;;;;;;;;22.00;99.90;;;;;;5036739;28;19991;-59
2021/07/03 06:27:12;;;;;;;;;;;22.10;99.90;;;;;;5036120;28;19997;-59
2021/07/03 06:29:37;;;;;;;;;;;22.10;99.90;;;;;;5034580;28;19986;-59
2021/07/03 06:32:04;;;;;;;;;;;22.00;99.90;;;;;;5026084;28;20068;-59
2021/07/03 06:34:29;;;;;;;;;;;22.00;99.90;;;;;;5050383;28;19982;-59
2021/07/03 06:36:55;;;;;;;;;;;22.00;99.90;;;;;;5037853;28;20340;-59
2021/07/03 06:39:20;;;;;;;;;;;22.00;99.90;;;;;;5034621;28;19990;-59
2021/07/03 06:41:46;;;;;;;;;;;22.00;99.90;;;;;;5026205;28;19986;-59
2021/07/03 06:44:12;;;;;;;;;;;22.00;99.90;;;;;;5026433;28;19986;-59
2021/07/03 06:46:37;;;;;;;;;;;22.00;99.90;;;;;;5026374;28;20001;-60
2021/07/03 06:49:03;;;;;;;;;;;22.00;99.90;;;;;;5034565;28;20008;-60
2021/07/03 06:51:28;;;;;;;;;;;22.00;99.90;;;;;;5037918;28;20002;-60
2021/07/03 06:53:56;;;;;;;;;;;22.00;99.90;;;;;;5027063;28;20500;-59
2021/07/03 06:56:22;;;;;;;;;;;22.00;99.90;;;;;;5027335;28;19994;-60
2021/07/03 06:58:48;;;;;;;;;;;22.00;99.90;;;;;;5038415;28;19986;-60
2021/07/03 07:01:13;;;;;;;;;;;22.10;99.90;;;;;;5025410;28;19990;-60
2021/07/03 07:03:39;;;;;;;;;;;22.20;99.90;;;;;;5035404;28;20012;-60
2021/07/03 07:06:04;;;;;;;;;;;22.20;99.90;;;;;;5026894;28;20028;-60
2021/07/03 07:08:30;;;;;;;;;;;22.20;99.90;;;;;;5026591;28;19989;-60
2021/07/03 07:10:56;;;;;;;;;;;22.20;99.90;;;;;;5034993;28;20112;-60
2021/07/03 07:13:22;;;;;;;;;;;22.10;99.90;;;;;;5050274;28;19990;-60
2021/07/03 07:15:48;;;;;;;;;;;22.00;99.90;;;;;;5037094;28;20035;-59
2021/07/03 07:18:13;;;;;;;;;;;21.90;99.90;;;;;;5038499;28;19990;-59
2021/07/03 07:20:39;;;;;;;;;;;21.90;99.90;;;;;;5035462;28;19986;-59
2021/07/03 07:23:04;;;;;;;;;;;22.00;99.90;;;;;;5038957;28;20009;-59
2021/07/03 07:25:31;;;;;;;;;;;22.00;99.90;;;;;;5034272;28;20017;-59
2021/07/03 07:27:57;;;;;;;;;;;21.90;99.90;;;;;;5033767;28;19998;-59
2021/07/03 07:30:22;;;;;;;;;;;21.90;99.90;;;;;;5034261;28;19997;-59
2021/07/03 07:32:48;;;;;;;;;;;21.80;99.90;;;;;;5035488;28;19994;-59
2021/07/03 07:35:13;;;;;;;;;;;21.90;99.90;;;;;;5032701;28;20431;-59
2021/07/03 07:37:41;;;;;;;;;;;21.90;99.90;;;;;;5034543;28;20026;-59
2021/07/03 07:40:07;;;;;;;;;;;21.80;99.90;;;;;;5032885;28;20406;-59
2021/07/03 07:42:33;;;;;;;;;;;21.80;99.90;;;;;;5032183;28;19994;-59
2021/07/03 07:44:59;;;;;;;;;;;21.90;99.90;;;;;;5028634;28;19986;-59
2021/07/03 07:47:24;;;;;;;;;;;21.90;99.90;;;;;;5031983;28;20055;-59
2021/07/03 07:49:50;;;;;;;;;;;21.90;99.90;;;;;;5033007;28;20088;-58
2021/07/03 07:52:15;;;;;;;;;;;21.90;99.90;;;;;;5030582;28;20002;-58
2021/07/03 07:54:41;;;;;;;;;;;21.80;99.90;;;;;;5031254;28;19998;-58
2021/07/03 07:57:06;;;;;;;;;;;21.90;99.90;;;;;;5035330;28;19994;-58
2021/07/03 07:59:32;;;;;;;;;;;21.80;99.90;;;;;;5038788;28;19982;-58
2021/07/03 08:01:58;;;;;;;;;;;21.80;99.90;;;;;;5048090;28;19982;-58
2021/07/03 08:04:23;;;;;;;;;;;21.70;99.90;;;;;;5045191;28;20039;-58
2021/07/03 08:06:49;;;;;;;;;;;21.70;99.90;;;;;;5049890;28;19982;-59
2021/07/03 08:09:14;;;;;;;;;;;21.70;99.90;;;;;;5048662;28;20076;-59
2021/07/03 08:11:40;;;;;;;;;;;21.70;99.90;;;;;;5033146;28;20006;-59
2021/07/03 08:14:06;;;;;;;;;;;21.70;99.90;;;;;;5029312;28;20005;-58
2021/07/03 08:16:31;;;;;;;;;;;21.80;99.90;;;;;;5042663;28;20211;-58
2021/07/03 08:18:57;;;;;;;;;;;21.80;99.90;;;;;;5041352;28;20001;-58
2021/07/03 08:21:22;;;;;;;;;;;21.80;99.90;;;;;;5034303;28;20018;-58
2021/07/03 08:23:48;;;;;;;;;;;21.80;99.90;;;;;;5030293;28;20001;-58
2021/07/03 08:26:14;;;;;;;;;;;21.90;99.90;;;;;;5032427;28;19986;-58
2021/07/03 08:28:40;;;;;;;;;;;22.00;99.90;;;;;;5029749;28;19991;-59
2021/07/03 08:31:05;;;;;;;;;;;22.00;99.90;;;;;;5030136;28;20103;-59
2021/07/03 08:33:31;;;;;;;;;;;22.00;99.90;;;;;;5030563;28;20590;-59
2021/07/03 08:35:56;;;;;;;;;;;22.10;99.90;;;;;;5037127;28;20005;-59
2021/07/03 08:38:24;;;;;;;;;;;22.10;99.90;;;;;;5033931;28;20008;-59
2021/07/03 08:40:50;;;;;;;;;;;22.20;99.90;;;;;;5036171;28;20464;-59
2021/07/03 08:43:15;;;;;;;;;;;22.10;99.90;;;;;;5040379;28;19989;-59
2021/07/03 08:45:41;;;;;;;;;;;22.10;99.90;;;;;;5037032;28;20013;-59
2021/07/03 08:48:06;;;;;;;;;;;22.10;99.90;;;;;;5040243;28;19997;-59
2021/07/03 08:50:32;;;;;;;;;;;22.20;99.90;;;;;;5034461;28;20483;-59
2021/07/03 08:52:58;;;;;;;;;;;22.30;99.90;;;;;;5030976;28;19990;-59
2021/07/03 08:55:25;;;;;;;;;;;22.20;99.90;;;;;;5032959;28;20467;-59
2021/07/03 08:57:52;;;;;;;;;;;22.20;99.90;;;;;;5048965;28;19986;-59
2021/07/03 09:00:19;;;;;;;;;;;22.40;99.90;;;;;;5040429;28;19989;-59
2021/07/03 09:02:45;;;;;;;;;;;22.50;99.90;;;;;;5049504;28;19994;-59
2021/07/03 09:05:32;;;;;;;;;;;22.30;99.90;;;;;;5064078;28;20039;-59
2021/07/03 09:07:58;;;;;;;;;;;22.30;99.90;;;;;;5050391;28;20088;-60
2021/07/03 09:10:24;;;;;;;;;;;22.30;99.90;;;;;;5043182;28;19986;-59
2021/07/03 09:12:51;;;;;;;;;;;22.40;99.90;;;;;;5026044;28;19986;-59
2021/07/03 09:15:23;;;;;;;;;;;22.30;99.90;;;;;;5024877;28;19998;-59
2021/07/03 09:17:53;;;;;;;;;;;22.40;99.90;;;;;;5038566;28;20440;-59
2021/07/03 09:20:29;;;;;;;;;;;22.40;99.90;;;;;;5026860;28;19986;-59
2021/07/03 09:22:59;;;;;;;;;;;22.30;99.90;;;;;;5027489;28;20028;-60
2021/07/03 09:25:24;;;;;;;;;;;22.40;99.90;;;;;;5030650;28;20356;-59
2021/07/03 09:27:51;;;;;;;;;;;22.40;99.90;;;;;;5036224;28;19993;-59
2021/07/03 09:30:19;;;;;;;;;;;22.30;99.90;;;;;;5029399;28;19998;-59
2021/07/03 09:32:51;;;;;;;;;;;22.30;99.90;;;;;;5029174;28;20006;-60
2021/07/03 09:35:17;;;;;;;;;;;22.20;99.90;;;;;;5036516;28;20637;-61
2021/07/03 09:37:44;;;;;;;;;;;22.20;99.90;;;;;;5042322;28;20696;-60
2021/07/03 09:40:10;;;;;;;;;;;22.20;99.90;;;;;;5038878;28;19989;-60
2021/07/03 09:42:37;;;;;;;;;;;22.20;99.90;;;;;;5033508;28;19992;-61
2021/07/03 09:45:03;;;;;;;;;;;22.10;99.90;;;;;;5045710;28;19990;-61
2021/07/03 09:47:29;;;;;;;;;;;22.10;99.90;;;;;;5039789;28;19989;-61
2021/07/03 09:50:02;;;;;;;;;;;22.00;99.90;;;;;;5028221;28;20013;-61
2021/07/03 09:52:40;;;;;;;;;;;22.10;99.90;;;;;;5025071;28;20234;-61
2021/07/03 09:55:07;;;;;;;;;;;22.10;99.90;;;;;;5027886;28;19994;-61
2021/07/03 09:57:33;;;;;;;;;;;22.10;99.90;;;;;;5032515;28;19990;-60
2021/07/03 09:59:59;;;;;;;;;;;22.00;99.90;;;;;;5042900;28;19990;-60
2021/07/03 10:02:26;;;;;;;;;;;21.90;99.90;;;;;;5043556;28;20468;-60
2021/07/03 10:04:52;;;;;;;;;;;21.70;99.90;;;;;;5032978;28;20359;-61
2021/07/03 10:07:20;;;;;;;;;;;21.60;99.90;;;;;;5045629;28;20085;-60
2021/07/03 10:09:54;;;;;;;;;;;21.50;99.90;;;;;;5035776;28;20713;-61
2021/07/03 10:12:26;;;;;;;;;;;21.50;99.90;;;;;;5030098;28;20010;-60
2021/07/03 10:14:52;;;;;;;;;;;21.50;99.90;;;;;;5033507;28;19993;-59
2021/07/03 10:17:24;;;;;;;;;;;21.50;99.90;;;;;;5036220;28;19990;-59
2021/07/03 10:19:51;;;;;;;;;;;21.70;99.90;;;;;;5062876;28;20358;-59
2021/07/03 10:22:17;;;;;;;;;;;21.70;99.90;;;;;;5047255;28;20069;-58
2021/07/03 10:24:45;;;;;;;;;;;21.60;99.90;;;;;;5044153;28;19989;-58
2021/07/03 10:27:18;;;;;;;;;;;21.60;99.90;;;;;;5047399;28;20076;-57
2021/07/03 10:29:45;;;;;;;;;;;21.70;99.90;;;;;;5034199;28;20534;-57
2021/07/03 10:32:19;;;;;;;;;;;21.70;99.90;;;;;;5032675;28;20036;-58
2021/07/03 10:34:45;;;;;;;;;;;21.80;99.90;;;;;;5061783;28;20075;-58
2021/07/03 10:37:11;;;;;;;;;;;21.80;99.90;;;;;;5035566;28;21154;-58
2021/07/03 10:39:36;;;;;;;;;;;21.90;99.90;;;;;;5029749;28;19994;-58
2021/07/03 10:42:02;;;;;;;;;;;21.80;99.90;;;;;;5032013;28;20460;-58
2021/07/03 10:44:38;;;;;;;;;;;21.70;99.90;;;;;;5033619;28;20012;-58
2021/07/03 10:47:10;;;;;;;;;;;21.60;99.90;;;;;;5038542;28;19989;-58
2021/07/03 10:49:37;;;;;;;;;;;21.60;99.90;;;;;;5046618;28;20037;-57
2021/07/03 10:52:10;;;;;;;;;;;21.50;99.90;;;;;;5040952;28;20013;-57
2021/07/03 10:54:36;;;;;;;;;;;21.60;99.90;;;;;;5042380;28;20394;-58
2021/07/03 10:57:07;;;;;;;;;;;21.80;99.90;;;;;;5031181;28;20105;-58
2021/07/03 10:59:34;;;;;;;;;;;21.80;99.90;;;;;;5030133;28;20004;-57
2021/07/03 11:02:09;;;;;;;;;;;21.90;99.90;;;;;;5032838;28;19993;-57
2021/07/03 11:04:45;;;;;;;;;;;21.80;99.90;;;;;;5031072;28;19986;-57
2021/07/03 11:07:18;;;;;;;;;;;21.80;99.90;;;;;;5031010;28;19997;-57
2021/07/03 11:09:45;;;;;;;;;;;21.70;99.90;;;;;;5030985;28;20006;-57
2021/07/03 11:12:11;;;;;;;;;;;21.70;99.90;;;;;;5049305;28;20002;-57
2021/07/03 11:14:46;;;;;;;;;;;21.70;99.90;;;;;;5043370;28;20159;-57
2021/07/03 11:17:14;;;;;;;;;;;21.80;99.90;;;;;;5043793;28;19996;-57
2021/07/03 11:19:42;;;;;;;;;;;21.50;99.90;;;;;;5063177;28;20455;-57
2021/07/03 11:22:09;;;;;;;;;;;21.50;99.90;;;;;;5046290;28;20024;-57
2021/07/03 11:24:41;;;;;;;;;;;21.60;99.90;;;;;;5030489;28;19996;-57
2021/07/03 11:27:07;;;;;;;;;;;21.60;99.90;;;;;;5030043;28;20478;-56
2021/07/03 11:29:32;;;;;;;;;;;21.50;99.90;;;;;;5033535;28;20017;-56
2021/07/03 11:32:02;;;;;;;;;;;21.50;99.90;;;;;;5044640;28;20006;-57
2021/07/03 11:34:27;;;;;;;;;;;21.40;99.90;;;;;;5061232;28;20000;-57
2021/07/03 11:36:56;;;;;;;;;;;21.40;99.90;;;;;;5038491;28;19994;-57
2021/07/03 11:39:22;;;;;;;;;;;21.40;99.90;;;;;;5049198;28;20016;-57
2021/07/03 11:41:48;;;;;;;;;;;21.50;99.90;;;;;;5048414;28;19990;-57
2021/07/03 11:44:14;;;;;;;;;;;21.60;99.90;;;;;;5049409;28;19988;-57
2021/07/03 11:46:48;;;;;;;;;;;21.60;99.90;;;;;;5049909;28;20080;-58
2021/07/03 11:49:14;;;;;;;;;;;21.60;99.90;;;;;;5049298;28;20080;-58
2021/07/03 11:51:39;;;;;;;;;;;21.70;99.90;;;;;;5048954;28;20088;-58
2021/07/03 11:54:05;;;;;;;;;;;21.60;99.90;;;;;;5049418;28;20843;-58
2021/07/03 11:56:31;;;;;;;;;;;21.60;99.90;;;;;;5049115;28;20080;-58
2021/07/03 11:58:58;;;;;;;;;;;21.60;99.90;;;;;;5049301;28;20047;-58
2021/07/03 12:01:23;;;;;;;;;;;21.70;99.90;;;;;;5039456;28;20349;-57
2021/07/03 12:03:49;;;;;;;;;;;21.70;99.90;;;;;;5032108;28;20085;-58
2021/07/03 12:06:22;;;;;;;;;;;21.60;99.90;;;;;;5048330;28;20044;-58
2021/07/03 12:08:49;;;;;;;;;;;21.60;99.90;;;;;;5028598;28;20345;-58
2021/07/03 12:11:16;;;;;;;;;;;21.70;99.90;;;;;;5039727;28;20479;-58
2021/07/03 12:13:48;;;;;;;;;;;21.70;99.90;;;;;;5041216;28;20050;-58
2021/07/03 12:16:15;;;;;;;;;;;21.50;99.90;;;;;;5034564;28;19989;-58
2021/07/03 12:18:40;;;;;;;;;;;21.60;99.90;;;;;;5033127;28;19986;-58
2021/07/03 12:21:10;;;;;;;;;;;21.50;99.90;;;;;;5027219;28;20484;-58
2021/07/03 12:23:38;;;;;;;;;;;21.50;99.90;;;;;;5029401;28;20032;-58
2021/07/03 12:26:04;;;;;;;;;;;21.40;99.90;;;;;;5027190;28;20376;-58
2021/07/03 12:28:30;;;;;;;;;;;21.40;99.90;;;;;;5027252;28;19982;-58
2021/07/03 12:31:05;;;;;;;;;;;21.40;99.90;;;;;;5025829;28;20006;-58
2021/07/03 12:33:31;;;;;;;;;;;21.40;99.90;;;;;;5027322;28;19993;-58
2021/07/03 12:35:57;;;;;;;;;;;21.40;99.90;;;;;;5027576;28;20149;-58
2021/07/03 12:38:25;;;;;;;;;;;21.40;99.90;;;;;;5027183;28;20085;-58
2021/07/03 12:40:51;;;;;;;;;;;21.50;99.90;;;;;;5027646;28;19990;-58
2021/07/03 12:43:16;;;;;;;;;;;21.40;99.90;;;;;;5040265;28;19990;-57
2021/07/03 12:45:42;;;;;;;;;;;21.40;99.90;;;;;;5045886;28;20472;-58
2021/07/03 12:48:12;;;;;;;;;;;21.40;99.90;;;;;;5045187;28;19994;-58
2021/07/03 12:50:39;;;;;;;;;;;21.20;99.90;;;;;;5029639;28;20092;-58
2021/07/03 12:53:05;;;;;;;;;;;21.30;99.90;;;;;;5027128;28;19982;-57
2021/07/03 12:55:36;;;;;;;;;;;21.20;99.90;;;;;;5026779;28;19983;-58
2021/07/03 12:58:02;;;;;;;;;;;21.20;99.90;;;;;;5025323;28;20026;-59
2021/07/03 13:00:28;;;;;;;;;;;21.10;99.90;;;;;;5025079;28;20587;-59
2021/07/03 13:02:54;;;;;;;;;;;21.10;99.90;;;;;;5026378;28;20014;-59
2021/07/03 13:05:22;;;;;;;;;;;21.10;99.90;;;;;;5036502;28;19991;-60
2021/07/03 13:07:47;;;;;;;;;;;21.10;99.90;;;;;;5044382;28;19990;-58
2021/07/03 13:10:14;;;;;;;;;;;21.10;99.90;;;;;;5028309;28;20016;-58
2021/07/03 13:12:40;;;;;;;;;;;21.00;99.90;;;;;;5026205;28;20006;-57
2021/07/03 13:15:05;;;;;;;;;;;21.10;99.90;;;;;;5027211;28;19994;-58
2021/07/03 13:17:31;;;;;;;;;;;21.00;99.90;;;;;;5030911;28;19987;-58
2021/07/03 13:19:56;;;;;;;;;;;21.00;99.90;;;;;;5027555;28;20171;-58
2021/07/03 13:22:22;;;;;;;;;;;21.00;99.90;;;;;;5027119;28;19994;-58
2021/07/03 13:24:48;;;;;;;;;;;20.70;99.90;;;;;;5034910;28;19993;-57
2021/07/03 13:27:13;;;;;;;;;;;20.70;99.90;;;;;;5029925;28;19994;-57
2021/07/03 13:29:39;;;;;;;;;;;20.60;99.90;;;;;;5026537;28;19986;-57
2021/07/03 13:32:07;;;;;;;;;;;20.60;99.90;;;;;;5026218;28;20029;-57
2021/07/03 13:34:33;;;;;;;;;;;20.60;99.90;;;;;;5025112;28;20384;-58
2021/07/03 13:36:58;;;;;;;;;;;20.50;99.90;;;;;;5024299;28;19985;-57
2021/07/03 13:39:25;;;;;;;;;;;20.50;99.90;;;;;;5023469;28;19992;-58
2021/07/03 13:41:50;;;;;;;;;;;20.70;99.90;;;;;;5024754;28;19988;-57
2021/07/03 13:44:16;;;;;;;;;;;20.70;99.90;;;;;;5024312;28;20176;-58
2021/07/03 13:46:42;;;;;;;;;;;20.80;99.90;;;;;;5026235;28;19983;-58
2021/07/03 13:49:08;;;;;;;;;;;20.70;99.90;;;;;;5026106;28;20002;-58
2021/07/03 13:51:33;;;;;;;;;;;20.90;99.90;;;;;;5026645;28;20468;-59
2021/07/03 13:53:59;;;;;;;;;;;20.80;99.90;;;;;;5026253;28;19986;-59
2021/07/03 13:56:25;;;;;;;;;;;20.90;99.90;;;;;;5026026;28;19982;-59
2021/07/03 13:58:52;;;;;;;;;;;20.90;99.90;;;;;;5025730;28;19989;-59
2021/07/03 14:01:17;;;;;;;;;;;21.00;99.90;;;;;;5025991;28;20016;-59
2021/07/03 14:03:43;;;;;;;;;;;21.10;99.90;;;;;;5026290;28;19996;-59
2021/07/03 14:06:08;;;;;;;;;;;21.10;99.90;;;;;;5025789;28;20081;-59
2021/07/03 14:08:35;;;;;;;;;;;21.10;99.90;;;;;;5026380;28;19988;-59
2021/07/03 14:11:01;;;;;;;;;;;21.20;99.90;;;;;;5025974;28;20002;-60
2021/07/03 14:13:27;;;;;;;;;;;21.30;99.90;;;;;;5025182;28;20427;-60